CW2939 Malaga ES current weather conditions

sailwx.info

Wind from 159 at 2 knots gusting 6

Air temperature 22.8° C
Dewpoint 14.9° C

Last reported at 2020-May-28 17:59 UTC.
Time now 2020-May-28 18:22 UTC

Location: N 36°52' W 004°09'.
View on Google Maps.

See reports from other nearby stations

  
Tides and Currents Weather Stations Pressure Air Temp Water Temp Dewpoint Dewpoint Depression Visibility Wind Speed Wind Dir Waves Ship Positions
date/time (UTC)wind fromknots sea level pressurealtimeterstation pressurevisibilityair tempwater tempwave heightnotes
2020-May-28 17:59 159 2 gusting 6 22.8
2020-May-28 17:54 135 3 gusting 7 22.8
2020-May-28 17:49 163 0 gusting 7 23.3
2020-May-28 17:44 182 0 gusting 5 23.3
2020-May-28 17:39 118 0 gusting 6 23.3
2020-May-28 17:29 202 1 gusting 8 23.9
2020-May-28 17:14 235 2 gusting 7 23.9
2020-May-28 17:09 196 0 gusting 7 24.4
2020-May-28 17:04 239 1 gusting 6 24.4
2020-May-28 16:59 241 1 gusting 6 24.4
2020-May-28 16:54 223 0 gusting 4 24.4
2020-May-28 16:49 196 1 gusting 6 24.4
2020-May-28 16:44 194 1 gusting 6 24.4
2020-May-28 16:34 156 1 gusting 6 25.0
2020-May-28 16:29 122 1 gusting 6 25.0
2020-May-28 16:14 342 0 gusting 5 25.0
2020-May-28 16:09 198 2 gusting 10 25.0
2020-May-28 15:59 213 3 gusting 8 25.6
2020-May-28 15:54 206 0 gusting 7 26.1
2020-May-28 15:44 243 0 gusting 5 26.1
2020-May-28 15:39 202 0 gusting 7 26.7
2020-May-28 15:34 230 1 gusting 6 26.7
2020-May-28 15:24 051 1 gusting 10 26.7
2020-May-28 15:19 245 4 gusting 10 26.1
2020-May-28 15:14 250 1 gusting 10 26.7
2020-May-28 15:09 269 1 gusting 10 26.7
2020-May-28 14:59 155 26.7
2020-May-28 14:54 257 0 gusting 4 26.7
2020-May-28 14:44 210 1 gusting 5 26.1
2020-May-28 14:39 125 0 gusting 4 26.1
2020-May-28 14:34 182 1 gusting 7 26.1
2020-May-28 14:29 058 0 gusting 4 25.6
2020-May-28 14:24 149 5 gusting 8 25.6
2020-May-28 14:14 131 7 gusting 18 25.0
2020-May-28 13:59 271 0 gusting 4 25.6
2020-May-28 13:44 141 1 gusting 8 25.6
2020-May-28 13:39 143 3 gusting 13 25.6
2020-May-28 13:34 136 1 gusting 8 25.6
2020-May-28 13:29 127 6 gusting 12 25.6
2020-May-28 11:29 129 1 gusting 6 25.0
2020-May-28 11:24 126 4 gusting 10 25.0
2020-May-28 11:19 134 8 gusting 13 25.0
2020-May-28 11:04 137 2 gusting 10 25.6
2020-May-28 10:59 123 3 gusting 10 26.1
2020-May-28 10:54 192 2 gusting 8 26.1
2020-May-28 10:39 182 1 gusting 5 26.7
2020-May-28 10:34 201 0 gusting 4 26.1
2020-May-28 10:24 109 1 gusting 13 25.0
2020-May-28 10:14 147 4 gusting 8 25.0
2020-May-28 10:09 131 3 gusting 10 25.0
2020-May-28 10:04 133 6 gusting 13 26.7
2020-May-28 09:59 132 1 gusting 6 27.2
2020-May-28 09:49 234 1 gusting 5 27.2
2020-May-28 09:39 234 1 gusting 6 27.2
2020-May-28 09:34 252 1 gusting 5 27.2
2020-May-28 09:29 252 1 gusting 6 27.2
2020-May-28 09:19 260 0 gusting 2 26.7
2020-May-28 09:04 288 0 gusting 4 26.1
2020-May-28 08:59 297 0 gusting 5 26.1
2020-May-28 08:54 297 0 gusting 4 25.6
2020-May-28 08:34 289 25.0
2020-May-28 08:29 288 1 gusting 4 24.4
2020-May-28 08:24 286 0 gusting 2 24.4
2020-May-28 08:09 284 23.3
2020-May-28 08:04 284 23.3
2020-May-28 07:59 284 0 gusting 2 22.8
2020-May-28 07:49 284 21.7
2020-May-28 07:34 284 21.1
2020-May-28 07:29 284 20.6
2020-May-28 07:24 284 20.6
2020-May-28 07:19 284 20.0
2020-May-28 07:14 284 20.0
2020-May-28 07:09 284 0 gusting 2 19.4
2020-May-28 07:04 284 19.4
2020-May-28 06:59 284 18.9
2020-May-28 06:54 284 18.9
2020-May-28 06:49 284 18.3
2020-May-28 06:44 284 18.3
2020-May-28 06:39 284 17.8
2020-May-28 06:34 284 17.2
2020-May-28 06:29 284 17.2
2020-May-28 06:19 284 16.7
2020-May-28 06:09 284 16.1
2020-May-28 05:59 284 15.6
2020-May-28 05:49 279 0 gusting 2 15.6
2020-May-28 05:34 274 15.6
2020-May-28 05:29 274 15.6
2020-May-28 05:24 274 15.6
2020-May-28 05:19 274 15.6
2020-May-28 05:09 273 1 gusting 2 15.6
2020-May-28 05:04 273 1 gusting 2 15.6
2020-May-28 04:54 274 1 gusting 2 15.6
2020-May-28 04:49 278 1 gusting 2 15.6
2020-May-28 04:44 275 1 gusting 2 15.6
2020-May-28 04:39 323 15.6
2020-May-28 04:29 323 15.6
2020-May-28 04:24 323 15.6
2020-May-28 04:14 323 15.6
2020-May-28 04:09 323 15.6
2020-May-28 04:04 323 15.6
2020-May-28 03:54 323 16.1
2020-May-28 03:49 323 16.1
2020-May-28 03:44 323 16.1
2020-May-28 03:39 323 16.1
2020-May-28 03:34 323 0 gusting 2 16.1
2020-May-28 03:29 323 1 gusting 2 16.1
2020-May-28 03:19 335 16.1
2020-May-28 03:14 333 2 gusting 2 16.1
2020-May-28 03:09 294 16.1
2020-May-28 03:04 294 16.1
2020-May-28 02:49 294 16.1
2020-May-28 02:44 294 1 gusting 2 16.1
2020-May-28 02:39 299 1 gusting 2 16.1
2020-May-28 02:34 294 1 gusting 2 16.1
2020-May-28 02:29 317 1 gusting 2 16.1
2020-May-28 02:19 292 16.1
2020-May-28 02:09 292 0 gusting 2 16.1
2020-May-28 02:04 292 1 gusting 1 16.1
2020-May-28 01:59 296 1 gusting 2 16.1
2020-May-28 01:54 298 16.1
2020-May-28 01:49 298 16.1
2020-May-28 01:44 298 16.1
2020-May-28 01:39 298 16.7
2020-May-28 01:24 298 16.7
2020-May-28 01:09 296 1 gusting 2 16.7
2020-May-28 01:04 294 1 gusting 2 16.7
2020-May-28 00:59 296 1 gusting 2 16.7
2020-May-28 00:54 279 1 gusting 2 16.7
2020-May-28 00:29 316 2 gusting 2 16.7
2020-May-28 00:19 329 2 gusting 2 16.7
2020-May-28 00:14 334 2 gusting 2 16.7
2020-May-28 00:09 337 1 gusting 2 17.2
2020-May-28 00:04 330 1 gusting 2 17.2
2020-May-27 23:59 339 2 gusting 2 17.2
2020-May-27 23:54 327 1 gusting 2 17.2
2020-May-27 23:44 334 1 gusting 2 17.2
2020-May-27 23:39 333 0 gusting 2 17.2
2020-May-27 23:34 334 1 gusting 2 17.2
2020-May-27 23:14 296 17.2
2020-May-27 23:09 296 17.2
2020-May-27 23:04 296 17.2
2020-May-27 22:59 296 17.2
2020-May-27 22:54 296 17.8
2020-May-27 22:49 296 17.8
2020-May-27 22:44 296 17.8
2020-May-27 22:39 296 17.8
2020-May-27 22:34 296 0 gusting 2 17.8
2020-May-27 22:29 236 17.8
2020-May-27 22:24 233 17.8
2020-May-27 22:19 232 17.8
2020-May-27 22:04 231 18.3
2020-May-27 21:59 230 18.3
2020-May-27 21:49 230 18.3
2020-May-27 21:44 230 18.3
2020-May-27 21:39 230 18.3
2020-May-27 21:34 230 18.3
2020-May-27 21:29 230 18.9
2020-May-27 21:24 230 18.9
2020-May-27 21:19 230 18.9
2020-May-27 21:09 230 18.9
2020-May-27 20:59 199 18.9
2020-May-27 20:54 199 18.9
2020-May-27 20:49 199 18.9
2020-May-27 20:39 199 19.4
2020-May-27 20:34 199 19.4
2020-May-27 20:29 190 0 gusting 2 19.4
2020-May-27 20:24 229 19.4
2020-May-27 20:19 229 19.4
2020-May-27 20:14 229 19.4
2020-May-27 20:09 229 0 gusting 2 19.4
2020-May-27 20:04 227 20.0
2020-May-27 19:54 205 0 gusting 5 20.0
2020-May-27 19:49 191 1 gusting 4 20.6
2020-May-27 19:34 197 1 gusting 5 20.6
2020-May-27 19:24 164 21.1
2020-May-27 19:19 167 21.1
2020-May-27 19:09 145 21.7
2020-May-27 19:04 145 0 gusting 2 21.7
2020-May-27 18:59 223 0 gusting 6 21.7
2020-May-27 18:49 196 21.7
2020-May-27 18:44 190 1 gusting 4 21.7
2020-May-27 18:39 171 22.2
2020-May-27 18:34 168 0 gusting 5 22.2
2020-May-27 18:29 181 1 gusting 5 22.2
2020-May-27 18:24 205 1 gusting 4 22.2
2020-May-27 18:19 167 22.2
2020-May-27 18:04 176 0 gusting 4 22.8
2020-May-27 17:59 177 0 gusting 4 22.8
2020-May-27 17:54 215 1 gusting 6 22.8
2020-May-27 17:49 207 22.8
2020-May-27 17:44 143 1 gusting 5 22.8
2020-May-27 17:39 177 1 gusting 7 22.8
2020-May-27 17:34 199 1 gusting 4 22.8
2020-May-27 17:29 145 2 gusting 6 22.8
2020-May-27 17:24 150 1 gusting 6 22.8
2020-May-27 17:19 152 1 gusting 7 23.3
2020-May-27 17:09 142 1 gusting 6 22.8
2020-May-27 17:04 169 2 gusting 7 22.8
2020-May-27 16:59 125 1 gusting 10 23.3
2020-May-27 16:49 171 0 gusting 5 23.3
2020-May-27 16:39 196 5 gusting 11 23.3
2020-May-27 16:04 212 1 gusting 5 24.4
2020-May-27 15:59 085 1 gusting 6 24.4
2020-May-27 15:54 134 1 gusting 7 24.4
2020-May-27 15:39 220 2 gusting 8 24.4
2020-May-27 15:34 142 5 gusting 10 25.0
2020-May-27 15:29 056 0 gusting 6 25.0
2020-May-27 15:24 182 4 gusting 8 24.4
2020-May-27 15:19 272 1 gusting 10 24.4
2020-May-27 15:14 116 4 gusting 10 24.4
2020-May-27 15:09 150 0 gusting 7 24.4
2020-May-27 15:04 154 2 gusting 8 24.4
2020-May-27 14:59 132 5 gusting 11 24.4
2020-May-27 14:54 151 2 gusting 11 24.4
2020-May-27 14:44 126 1 gusting 8 24.4
2020-May-27 14:34 270 4 gusting 11 24.4
2020-May-27 14:19 157 1 gusting 10 25.0
2020-May-27 14:14 144 1 gusting 10 25.0
2020-May-27 14:09 102 3 gusting 8 25.0
2020-May-27 13:59 150 5 gusting 10 24.4
2020-May-27 13:34 167 4 gusting 11 24.4
2020-May-27 13:29 141 7 gusting 12 24.4
2020-May-27 13:24 132 3 gusting 13 24.4
2020-May-27 13:19 142 5 gusting 13 25.0
2020-May-27 13:14 129 4 gusting 12 25.6
2020-May-27 13:09 163 2 gusting 7 25.0
2020-May-27 12:59 159 5 gusting 10 25.0
2020-May-27 12:54 141 3 gusting 7 25.0
2020-May-27 12:24 139 7 gusting 10 25.6
2020-May-27 12:19 138 0 gusting 8 25.6
2020-May-27 12:14 131 1 gusting 7 26.1
2020-May-27 12:09 109 2 gusting 10 25.6
2020-May-27 12:04 214 1 gusting 8 25.0
2020-May-27 11:59 146 4 gusting 10 24.4
2020-May-27 11:54 136 6 gusting 11 25.0
2020-May-27 11:49 126 5 gusting 11 25.0
2020-May-27 11:44 151 1 gusting 6 24.4
2020-May-27 11:39 132 1 gusting 8 24.4
2020-May-27 11:29 134 7 gusting 15 25.0
2020-May-27 11:24 148 0 gusting 10 25.6
2020-May-27 11:19 156 0 gusting 15 25.6
2020-May-27 11:14 142 1 gusting 10 25.6
2020-May-27 11:09 221 2 gusting 7 25.6
2020-May-27 10:54 126 2 gusting 10 25.0
2020-May-27 10:44 218 2 gusting 10 24.4
2020-May-27 10:34 134 1 gusting 12 24.4
2020-May-27 10:29 144 2 gusting 8 24.4
2020-May-27 10:24 152 3 gusting 11 24.4
2020-May-27 10:19 144 2 gusting 13 24.4
2020-May-27 10:14 137 6 gusting 13 25.0
2020-May-27 10:09 128 2 gusting 11 25.0
2020-May-27 10:04 123 0 gusting 7 24.4
2020-May-27 09:59 123 6 gusting 13 24.4
2020-May-27 09:54 160 1 gusting 6 24.4
2020-May-27 09:44 144 2 gusting 10 25.0
2020-May-27 09:39 231 2 gusting 8 24.4
2020-May-27 09:34 136 4 gusting 10 24.4
2020-May-27 09:29 155 4 gusting 10 25.0
2020-May-27 09:24 071 5 gusting 8 25.0
2020-May-27 09:19 247 1 gusting 6 24.4
2020-May-27 09:14 175 1 gusting 13 24.4
2020-May-27 09:04 112 6 gusting 10 25.0
2020-May-27 08:54 139 5 gusting 10 25.6
2020-May-27 08:49 231 3 gusting 10 25.6
2020-May-27 08:44 248 1 gusting 5 25.0
2020-May-27 08:39 137 1 gusting 4 25.0
2020-May-27 08:34 136 2 gusting 6 25.0
2020-May-27 08:24 271 24.4
2020-May-27 08:19 271 0 gusting 2 24.4
2020-May-27 08:14 271 23.9
2020-May-27 08:09 271 23.9
2020-May-27 08:04 271 1 gusting 2 23.3
2020-May-27 07:59 270 22.8
2020-May-27 07:54 270 0 gusting 2 22.8
2020-May-27 07:49 270 22.2
2020-May-27 07:39 270 21.7
2020-May-27 07:14 269 20.0
2020-May-27 07:09 269 19.4
2020-May-27 07:04 269 19.4
2020-May-27 06:59 269 0 gusting 2 18.9
2020-May-27 06:54 269 0 gusting 2 18.9
2020-May-27 06:49 269 0 gusting 4 18.9
2020-May-27 06:44 269 0 gusting 2 18.3
2020-May-27 06:39 269 18.3
2020-May-27 06:29 269 17.8
2020-May-27 06:09 269 16.7
2020-May-27 06:04 269 16.1
2020-May-27 05:59 269 16.1
2020-May-27 05:49 269 1 gusting 2 15.6
2020-May-27 05:39 269 1 gusting 4 15.6
2020-May-27 05:34 269 1 gusting 2 15.6
2020-May-27 05:29 270 15.6
2020-May-27 05:24 270 15.6
2020-May-27 05:19 276 15.6
2020-May-27 05:09 275 0 gusting 2 15.6
2020-May-27 05:04 275 0 gusting 1 15.0
2020-May-27 04:54 275 15.6
2020-May-27 04:49 275 2 gusting 2 15.6
2020-May-27 04:44 275 15.6
2020-May-27 04:34 275 15.6
2020-May-27 04:24 273 1 gusting 4 15.6
2020-May-27 04:19 282 2 gusting 4 15.6
2020-May-27 04:14 287 2 gusting 5 15.6
2020-May-27 04:09 312 4 gusting 6 15.6
2020-May-27 04:04 312 2 gusting 5 15.6
2020-May-27 03:59 313 2 gusting 2 16.1
2020-May-27 03:44 301 1 gusting 2 16.1
2020-May-27 03:39 311 2 gusting 2 16.1
2020-May-27 03:34 319 1 gusting 2 16.1
2020-May-27 03:24 319 2 gusting 2 16.1
2020-May-27 03:19 310 2 gusting 2 16.1
2020-May-27 03:09 273 2 gusting 4 16.1
2020-May-27 02:54 262 16.1
2020-May-27 02:39 262 16.1
2020-May-27 02:34 262 16.1
2020-May-27 02:19 262 16.7
2020-May-27 02:14 262 16.7
2020-May-27 02:09 262 16.7
2020-May-27 02:04 262 16.7
2020-May-27 01:59 262 16.7
2020-May-27 01:54 262 16.7
2020-May-27 01:49 262 16.7
2020-May-27 01:39 262 16.7
2020-May-27 01:34 262 16.7
2020-May-27 01:29 262 16.7
2020-May-27 01:24 262 16.7
2020-May-27 01:19 262 17.2
2020-May-27 01:14 262 17.2
2020-May-27 01:09 262 17.2
2020-May-27 01:04 262 17.2
2020-May-27 00:59 262 17.2
2020-May-27 00:49 262 17.2
2020-May-27 00:44 262 17.2
2020-May-27 00:34 262 17.2
2020-May-27 00:29 262 17.8
2020-May-27 00:24 262 17.8
2020-May-27 00:14 261 17.8
2020-May-27 00:09 261 17.8
2020-May-27 00:04 261 17.8
2020-May-26 23:59 261 17.8
2020-May-26 23:54 261 18.3
2020-May-26 23:49 261 18.3
2020-May-26 23:44 261 18.3
2020-May-26 23:34 261 0 gusting 2 18.3
2020-May-26 23:29 263 18.3
2020-May-26 23:24 263 1 gusting 2 18.3
2020-May-26 23:14 316 0 gusting 2 18.9
2020-May-26 23:04 319 1 gusting 2 18.9
2020-May-26 22:59 286 1 gusting 2 18.9
2020-May-26 22:54 282 0 gusting 4 18.9
2020-May-26 22:44 273 0 gusting 2 18.9
2020-May-26 22:39 271 0 gusting 2 18.9
2020-May-26 22:29 262 0 gusting 2 18.9
2020-May-26 22:24 250 18.9
2020-May-26 22:19 250 18.9
2020-May-26 22:14 250 18.9
2020-May-26 22:09 250 0 gusting 2 18.9
2020-May-26 21:54 198 2 gusting 5 18.9
2020-May-26 21:39 240 0 gusting 2 18.3
2020-May-26 21:34 240 18.3
2020-May-26 21:29 240 18.3
2020-May-26 21:19 240 18.3
2020-May-26 21:04 240 0 gusting 4 18.3
2020-May-26 20:59 207 18.3
2020-May-26 20:54 207 18.3
2020-May-26 20:49 207 18.3
2020-May-26 20:44 207 18.3
2020-May-26 20:39 207 18.3
2020-May-26 20:29 207 18.3
2020-May-26 20:19 207 18.3
2020-May-26 20:04 207 18.9
2020-May-26 19:54 207 18.9
2020-May-26 19:49 207 0 gusting 2 18.9
2020-May-26 19:39 208 0 gusting 2 18.9
2020-May-26 19:24 212 0 gusting 2 19.4
2020-May-26 19:19 213 0 gusting 2 19.4
2020-May-26 19:14 191 0 gusting 2 19.4
2020-May-26 19:09 191 0 gusting 2 19.4
2020-May-26 18:49 145 0 gusting 2 20.0
2020-May-26 18:44 147 2 gusting 4 20.0
2020-May-26 18:34 127 2 gusting 6 20.0
2020-May-26 18:29 121 1 gusting 10 20.6
2020-May-26 18:24 137 2 gusting 8 20.6
2020-May-26 18:19 171 3 gusting 7 20.6
2020-May-26 18:09 133 5 gusting 10 20.6
2020-May-26 18:04 130 4 gusting 8 21.1